sensor_id;sensor_type;location;lat;lon;timestamp;P1;durP1;ratioP1;P2;durP2;ratioP2
72156;SDS011;60035;52.122;5.406;2023-04-24T00:00:03;3.17;;;1.05;;
72156;SDS011;60035;52.122;5.406;2023-04-24T00:02:35;2.90;;;1.10;;
72156;SDS011;60035;52.122;5.406;2023-04-24T00:05:06;2.55;;;1.13;;
72156;SDS011;60035;52.122;5.406;2023-04-24T00:07:34;3.38;;;1.20;;
72156;SDS011;60035;52.122;5.406;2023-04-24T00:10:01;5.35;;;1.38;;
72156;SDS011;60035;52.122;5.406;2023-04-24T00:12:27;2.67;;;1.25;;
72156;SDS011;60035;52.122;5.406;2023-04-24T00:14:54;2.90;;;1.33;;
72156;SDS011;60035;52.122;5.406;2023-04-24T00:17:23;3.78;;;1.45;;
72156;SDS011;60035;52.122;5.406;2023-04-24T00:19:49;3.88;;;1.55;;
72156;SDS011;60035;52.122;5.406;2023-04-24T00:22:25;2.78;;;1.17;;
72156;SDS011;60035;52.122;5.406;2023-04-24T00:24:52;3.63;;;1.67;;
72156;SDS011;60035;52.122;5.406;2023-04-24T00:27:18;3.10;;;1.63;;
72156;SDS011;60035;52.122;5.406;2023-04-24T00:29:45;3.70;;;1.58;;
72156;SDS011;60035;52.122;5.406;2023-04-24T00:32:12;4.03;;;1.50;;
72156;SDS011;60035;52.122;5.406;2023-04-24T00:34:39;3.30;;;1.67;;
72156;SDS011;60035;52.122;5.406;2023-04-24T00:37:05;4.72;;;1.98;;
72156;SDS011;60035;52.122;5.406;2023-04-24T00:39:32;4.28;;;1.83;;
72156;SDS011;60035;52.122;5.406;2023-04-24T00:41:59;4.07;;;1.90;;
72156;SDS011;60035;52.122;5.406;2023-04-24T00:44:25;3.72;;;1.70;;
72156;SDS011;60035;52.122;5.406;2023-04-24T00:46:52;4.90;;;2.30;;
72156;SDS011;60035;52.122;5.406;2023-04-24T00:49:21;5.35;;;1.85;;
72156;SDS011;60035;52.122;5.406;2023-04-24T00:51:48;4.43;;;1.92;;
72156;SDS011;60035;52.122;5.406;2023-04-24T00:54:17;6.20;;;2.13;;
72156;SDS011;60035;52.122;5.406;2023-04-24T00:56:44;6.05;;;2.42;;
72156;SDS011;60035;52.122;5.406;2023-04-24T00:59:15;7.32;;;2.40;;
72156;SDS011;60035;52.122;5.406;2023-04-24T01:01:43;5.65;;;2.53;;
72156;SDS011;60035;52.122;5.406;2023-04-24T01:04:11;5.63;;;2.05;;
72156;SDS011;60035;52.122;5.406;2023-04-24T01:06:39;6.47;;;2.75;;
72156;SDS011;60035;52.122;5.406;2023-04-24T01:09:06;7.82;;;2.92;;
72156;SDS011;60035;52.122;5.406;2023-04-24T01:11:34;6.72;;;3.13;;
72156;SDS011;60035;52.122;5.406;2023-04-24T01:14:02;6.07;;;2.95;;
72156;SDS011;60035;52.122;5.406;2023-04-24T01:16:29;6.05;;;2.55;;
72156;SDS011;60035;52.122;5.406;2023-04-24T01:18:56;8.18;;;3.00;;
72156;SDS011;60035;52.122;5.406;2023-04-24T01:21:22;7.75;;;3.17;;
72156;SDS011;60035;52.122;5.406;2023-04-24T01:23:49;7.10;;;3.45;;
72156;SDS011;60035;52.122;5.406;2023-04-24T01:26:17;7.10;;;3.03;;
72156;SDS011;60035;52.122;5.406;2023-04-24T01:28:46;7.25;;;2.97;;
72156;SDS011;60035;52.122;5.406;2023-04-24T01:31:14;7.45;;;2.70;;
72156;SDS011;60035;52.122;5.406;2023-04-24T01:33:41;7.22;;;3.15;;
72156;SDS011;60035;52.122;5.406;2023-04-24T01:36:09;7.28;;;3.20;;
72156;SDS011;60035;52.122;5.406;2023-04-24T01:38:37;8.02;;;3.22;;
72156;SDS011;60035;52.122;5.406;2023-04-24T01:41:03;7.20;;;3.42;;
72156;SDS011;60035;52.122;5.406;2023-04-24T01:43:30;7.70;;;3.67;;
72156;SDS011;60035;52.122;5.406;2023-04-24T01:45:57;8.77;;;3.72;;
72156;SDS011;60035;52.122;5.406;2023-04-24T01:48:24;9.73;;;3.85;;
72156;SDS011;60035;52.122;5.406;2023-04-24T01:50:50;8.27;;;3.67;;
72156;SDS011;60035;52.122;5.406;2023-04-24T01:53:17;8.23;;;3.67;;
72156;SDS011;60035;52.122;5.406;2023-04-24T01:55:44;8.95;;;3.97;;
72156;SDS011;60035;52.122;5.406;2023-04-24T01:58:10;10.32;;;4.00;;
72156;SDS011;60035;52.122;5.406;2023-04-24T02:00:37;10.77;;;4.03;;
72156;SDS011;60035;52.122;5.406;2023-04-24T02:03:03;8.85;;;4.07;;
72156;SDS011;60035;52.122;5.406;2023-04-24T02:05:33;8.85;;;4.15;;
72156;SDS011;60035;52.122;5.406;2023-04-24T02:07:59;7.45;;;2.85;;
72156;SDS011;60035;52.122;5.406;2023-04-24T02:10:26;7.55;;;3.10;;
72156;SDS011;60035;52.122;5.406;2023-04-24T02:12:52;7.63;;;3.22;;
72156;SDS011;60035;52.122;5.406;2023-04-24T02:15:19;7.10;;;2.97;;
72156;SDS011;60035;52.122;5.406;2023-04-24T02:17:45;7.13;;;3.13;;
72156;SDS011;60035;52.122;5.406;2023-04-24T02:20:12;8.23;;;3.17;;
72156;SDS011;60035;52.122;5.406;2023-04-24T02:22:38;8.30;;;3.42;;
72156;SDS011;60035;52.122;5.406;2023-04-24T02:25:05;7.47;;;3.13;;
72156;SDS011;60035;52.122;5.406;2023-04-24T02:27:32;7.40;;;2.97;;
72156;SDS011;60035;52.122;5.406;2023-04-24T02:29:58;6.70;;;2.90;;
72156;SDS011;60035;52.122;5.406;2023-04-24T02:32:24;6.35;;;2.80;;
72156;SDS011;60035;52.122;5.406;2023-04-24T02:34:51;8.55;;;3.22;;
72156;SDS011;60035;52.122;5.406;2023-04-24T02:37:17;7.95;;;3.03;;
72156;SDS011;60035;52.122;5.406;2023-04-24T02:39:44;8.10;;;2.60;;
72156;SDS011;60035;52.122;5.406;2023-04-24T02:42:10;6.72;;;2.95;;
72156;SDS011;60035;52.122;5.406;2023-04-24T02:44:37;6.68;;;2.25;;
72156;SDS011;60035;52.122;5.406;2023-04-24T02:47:03;7.25;;;2.70;;
72156;SDS011;60035;52.122;5.406;2023-04-24T02:49:30;8.98;;;3.50;;
72156;SDS011;60035;52.122;5.406;2023-04-24T02:51:56;9.02;;;3.08;;
72156;SDS011;60035;52.122;5.406;2023-04-24T02:54:26;8.32;;;3.17;;
72156;SDS011;60035;52.122;5.406;2023-04-24T02:56:52;9.55;;;3.50;;
72156;SDS011;60035;52.122;5.406;2023-04-24T02:59:19;7.38;;;3.08;;
72156;SDS011;60035;52.122;5.406;2023-04-24T03:01:45;7.78;;;3.50;;
72156;SDS011;60035;52.122;5.406;2023-04-24T03:04:14;9.07;;;3.30;;
72156;SDS011;60035;52.122;5.406;2023-04-24T03:06:42;7.25;;;3.25;;
72156;SDS011;60035;52.122;5.406;2023-04-24T03:09:08;8.10;;;2.85;;
72156;SDS011;60035;52.122;5.406;2023-04-24T03:11:35;8.27;;;2.92;;
72156;SDS011;60035;52.122;5.406;2023-04-24T03:14:01;7.68;;;3.22;;
72156;SDS011;60035;52.122;5.406;2023-04-24T03:16:28;8.55;;;3.03;;
72156;SDS011;60035;52.122;5.406;2023-04-24T03:18:55;7.03;;;2.80;;
72156;SDS011;60035;52.122;5.406;2023-04-24T03:21:22;7.80;;;2.88;;
72156;SDS011;60035;52.122;5.406;2023-04-24T03:23:48;9.73;;;2.97;;
72156;SDS011;60035;52.122;5.406;2023-04-24T03:26:15;8.45;;;3.53;;
72156;SDS011;60035;52.122;5.406;2023-04-24T03:28:41;7.47;;;2.72;;
72156;SDS011;60035;52.122;5.406;2023-04-24T03:31:08;9.30;;;3.25;;
72156;SDS011;60035;52.122;5.406;2023-04-24T03:33:34;6.68;;;2.53;;
72156;SDS011;60035;52.122;5.406;2023-04-24T03:36:02;7.03;;;2.78;;
72156;SDS011;60035;52.122;5.406;2023-04-24T03:38:29;8.48;;;2.95;;
72156;SDS011;60035;52.122;5.406;2023-04-24T03:40:55;11.35;;;3.10;;
72156;SDS011;60035;52.122;5.406;2023-04-24T03:43:22;6.55;;;2.70;;
72156;SDS011;60035;52.122;5.406;2023-04-24T03:45:48;8.85;;;3.33;;
72156;SDS011;60035;52.122;5.406;2023-04-24T03:48:15;9.30;;;3.40;;
72156;SDS011;60035;52.122;5.406;2023-04-24T03:50:41;9.30;;;3.55;;
72156;SDS011;60035;52.122;5.406;2023-04-24T03:53:08;9.02;;;3.35;;
72156;SDS011;60035;52.122;5.406;2023-04-24T03:55:37;8.05;;;3.13;;
72156;SDS011;60035;52.122;5.406;2023-04-24T03:58:03;8.13;;;3.13;;
72156;SDS011;60035;52.122;5.406;2023-04-24T04:00:30;7.18;;;2.72;;
72156;SDS011;60035;52.122;5.406;2023-04-24T04:03:01;7.53;;;2.78;;
72156;SDS011;60035;52.122;5.406;2023-04-24T04:05:30;8.10;;;2.92;;
72156;SDS011;60035;52.122;5.406;2023-04-24T04:07:56;7.38;;;2.58;;
72156;SDS011;60035;52.122;5.406;2023-04-24T04:10:23;7.32;;;2.72;;
72156;SDS011;60035;52.122;5.406;2023-04-24T04:12:49;7.80;;;2.90;;
72156;SDS011;60035;52.122;5.406;2023-04-24T04:15:16;7.28;;;3.30;;
72156;SDS011;60035;52.122;5.406;2023-04-24T04:17:42;8.38;;;2.95;;
72156;SDS011;60035;52.122;5.406;2023-04-24T04:20:09;7.47;;;2.83;;
72156;SDS011;60035;52.122;5.406;2023-04-24T04:22:36;8.02;;;2.78;;
72156;SDS011;60035;52.122;5.406;2023-04-24T04:25:03;7.63;;;2.90;;
72156;SDS011;60035;52.122;5.406;2023-04-24T04:27:30;8.55;;;3.00;;
72156;SDS011;60035;52.122;5.406;2023-04-24T04:29:58;8.18;;;3.28;;
72156;SDS011;60035;52.122;5.406;2023-04-24T04:32:29;8.90;;;3.38;;
72156;SDS011;60035;52.122;5.406;2023-04-24T04:34:55;8.25;;;3.00;;
72156;SDS011;60035;52.122;5.406;2023-04-24T04:37:22;8.50;;;3.25;;
72156;SDS011;60035;52.122;5.406;2023-04-24T04:39:48;10.25;;;3.55;;
72156;SDS011;60035;52.122;5.406;2023-04-24T04:42:15;8.52;;;3.63;;
72156;SDS011;60035;52.122;5.406;2023-04-24T04:44:41;10.52;;;3.97;;
72156;SDS011;60035;52.122;5.406;2023-04-24T04:47:08;16.38;;;3.65;;
72156;SDS011;60035;52.122;5.406;2023-04-24T04:49:37;10.23;;;3.63;;
72156;SDS011;60035;52.122;5.406;2023-04-24T04:52:04;9.93;;;3.47;;
72156;SDS011;60035;52.122;5.406;2023-04-24T04:54:31;9.23;;;3.47;;
72156;SDS011;60035;52.122;5.406;2023-04-24T04:56:57;10.88;;;3.53;;
72156;SDS011;60035;52.122;5.406;2023-04-24T04:59:25;9.23;;;2.97;;
72156;SDS011;60035;52.122;5.406;2023-04-24T05:01:51;8.32;;;3.15;;
72156;SDS011;60035;52.122;5.406;2023-04-24T05:04:18;8.82;;;3.00;;
72156;SDS011;60035;52.122;5.406;2023-04-24T05:06:44;8.05;;;2.58;;
72156;SDS011;60035;52.122;5.406;2023-04-24T05:09:13;8.02;;;3.05;;
72156;SDS011;60035;52.122;5.406;2023-04-24T05:11:39;7.82;;;2.85;;
72156;SDS011;60035;52.122;5.406;2023-04-24T05:14:08;7.90;;;3.03;;
72156;SDS011;60035;52.122;5.406;2023-04-24T05:16:34;7.80;;;2.92;;
72156;SDS011;60035;52.122;5.406;2023-04-24T05:19:03;8.48;;;3.17;;
72156;SDS011;60035;52.122;5.406;2023-04-24T05:21:29;8.88;;;3.08;;
72156;SDS011;60035;52.122;5.406;2023-04-24T05:23:56;9.05;;;2.92;;
72156;SDS011;60035;52.122;5.406;2023-04-24T05:26:23;8.63;;;2.85;;
72156;SDS011;60035;52.122;5.406;2023-04-24T05:28:50;9.25;;;3.38;;
72156;SDS011;60035;52.122;5.406;2023-04-24T05:31:17;9.35;;;2.80;;
72156;SDS011;60035;52.122;5.406;2023-04-24T05:33:44;7.88;;;2.72;;
72156;SDS011;60035;52.122;5.406;2023-04-24T05:36:10;8.18;;;2.63;;
72156;SDS011;60035;52.122;5.406;2023-04-24T05:38:37;6.97;;;2.25;;
72156;SDS011;60035;52.122;5.406;2023-04-24T05:41:03;6.35;;;2.13;;
72156;SDS011;60035;52.122;5.406;2023-04-24T05:43:29;6.85;;;2.53;;
72156;SDS011;60035;52.122;5.406;2023-04-24T05:45:56;8.68;;;3.00;;
72156;SDS011;60035;52.122;5.406;2023-04-24T05:48:22;7.65;;;2.67;;
72156;SDS011;60035;52.122;5.406;2023-04-24T05:50:49;7.07;;;2.30;;
72156;SDS011;60035;52.122;5.406;2023-04-24T05:53:16;8.43;;;2.60;;
72156;SDS011;60035;52.122;5.406;2023-04-24T05:55:42;9.48;;;2.75;;
72156;SDS011;60035;52.122;5.406;2023-04-24T05:58:09;7.90;;;2.50;;
72156;SDS011;60035;52.122;5.406;2023-04-24T06:00:36;8.65;;;2.55;;
72156;SDS011;60035;52.122;5.406;2023-04-24T06:03:08;7.20;;;2.58;;
72156;SDS011;60035;52.122;5.406;2023-04-24T06:05:36;7.32;;;2.20;;
72156;SDS011;60035;52.122;5.406;2023-04-24T06:08:03;6.60;;;2.05;;
72156;SDS011;60035;52.122;5.406;2023-04-24T06:10:30;6.65;;;1.77;;
72156;SDS011;60035;52.122;5.406;2023-04-24T06:12:56;5.93;;;1.65;;
72156;SDS011;60035;52.122;5.406;2023-04-24T06:15:30;5.72;;;1.40;;
72156;SDS011;60035;52.122;5.406;2023-04-24T06:17:57;5.40;;;1.00;;
72156;SDS011;60035;52.122;5.406;2023-04-24T06:20:24;4.72;;;0.93;;
72156;SDS011;60035;52.122;5.406;2023-04-24T06:22:51;4.32;;;0.80;;
72156;SDS011;60035;52.122;5.406;2023-04-24T06:25:17;1.85;;;0.63;;
72156;SDS011;60035;52.122;5.406;2023-04-24T06:27:45;3.40;;;0.70;;
72156;SDS011;60035;52.122;5.406;2023-04-24T06:30:11;2.55;;;0.80;;
72156;SDS011;60035;52.122;5.406;2023-04-24T06:32:38;3.30;;;0.60;;
72156;SDS011;60035;52.122;5.406;2023-04-24T06:35:07;1.58;;;0.55;;
72156;SDS011;60035;52.122;5.406;2023-04-24T06:37:35;2.67;;;0.70;;
72156;SDS011;60035;52.122;5.406;2023-04-24T06:40:02;2.60;;;0.98;;
72156;SDS011;60035;52.122;5.406;2023-04-24T06:42:32;3.58;;;1.30;;
72156;SDS011;60035;52.122;5.406;2023-04-24T06:44:59;7.97;;;2.40;;
72156;SDS011;60035;52.122;5.406;2023-04-24T06:47:29;10.30;;;3.50;;
72156;SDS011;60035;52.122;5.406;2023-04-24T06:49:56;11.88;;;4.40;;
72156;SDS011;60035;52.122;5.406;2023-04-24T06:52:23;13.27;;;4.90;;
72156;SDS011;60035;52.122;5.406;2023-04-24T06:54:49;15.65;;;6.00;;
72156;SDS011;60035;52.122;5.406;2023-04-24T06:57:18;18.08;;;5.50;;
72156;SDS011;60035;52.122;5.406;2023-04-24T06:59:46;16.60;;;6.32;;
72156;SDS011;60035;52.122;5.406;2023-04-24T07:02:12;15.85;;;5.40;;
72156;SDS011;60035;52.122;5.406;2023-04-24T07:04:39;14.80;;;5.13;;
72156;SDS011;60035;52.122;5.406;2023-04-24T07:07:06;17.60;;;5.93;;
72156;SDS011;60035;52.122;5.406;2023-04-24T07:09:33;18.20;;;7.25;;
72156;SDS011;60035;52.122;5.406;2023-04-24T07:12:01;17.35;;;6.97;;
72156;SDS011;60035;52.122;5.406;2023-04-24T07:14:30;18.63;;;7.80;;
72156;SDS011;60035;52.122;5.406;2023-04-24T07:16:57;15.98;;;6.57;;
72156;SDS011;60035;52.122;5.406;2023-04-24T07:19:23;18.92;;;7.28;;
72156;SDS011;60035;52.122;5.406;2023-04-24T07:21:52;18.63;;;7.20;;
72156;SDS011;60035;52.122;5.406;2023-04-24T07:24:19;20.08;;;6.80;;
72156;SDS011;60035;52.122;5.406;2023-04-24T07:26:48;20.88;;;7.88;;
72156;SDS011;60035;52.122;5.406;2023-04-24T07:29:14;19.75;;;7.55;;
72156;SDS011;60035;52.122;5.406;2023-04-24T07:31:41;18.55;;;6.70;;
72156;SDS011;60035;52.122;5.406;2023-04-24T07:34:08;21.45;;;7.70;;
72156;SDS011;60035;52.122;5.406;2023-04-24T07:36:34;15.05;;;6.05;;
72156;SDS011;60035;52.122;5.406;2023-04-24T07:39:01;21.85;;;6.47;;
72156;SDS011;60035;52.122;5.406;2023-04-24T07:41:27;19.88;;;7.40;;
72156;SDS011;60035;52.122;5.406;2023-04-24T07:43:54;13.65;;;5.72;;
72156;SDS011;60035;52.122;5.406;2023-04-24T07:46:20;20.05;;;7.00;;
72156;SDS011;60035;52.122;5.406;2023-04-24T07:48:49;21.50;;;7.35;;
72156;SDS011;60035;52.122;5.406;2023-04-24T07:51:34;20.70;;;6.47;;
72156;SDS011;60035;52.122;5.406;2023-04-24T07:54:04;18.35;;;6.55;;
72156;SDS011;60035;52.122;5.406;2023-04-24T07:56:34;16.42;;;6.45;;
72156;SDS011;60035;52.122;5.406;2023-04-24T07:59:05;17.85;;;5.40;;
72156;SDS011;60035;52.122;5.406;2023-04-24T08:01:31;20.08;;;5.85;;
72156;SDS011;60035;52.122;5.406;2023-04-24T08:03:58;20.70;;;7.30;;
72156;SDS011;60035;52.122;5.406;2023-04-24T08:06:28;21.38;;;5.88;;
72156;SDS011;60035;52.122;5.406;2023-04-24T08:08:58;19.83;;;6.80;;
72156;SDS011;60035;52.122;5.406;2023-04-24T08:11:28;24.63;;;7.05;;
72156;SDS011;60035;52.122;5.406;2023-04-24T08:13:54;18.77;;;7.03;;
72156;SDS011;60035;52.122;5.406;2023-04-24T08:16:21;15.75;;;5.60;;
72156;SDS011;60035;52.122;5.406;2023-04-24T08:18:50;20.70;;;5.10;;
72156;SDS011;60035;52.122;5.406;2023-04-24T08:21:17;21.98;;;5.85;;
72156;SDS011;60035;52.122;5.406;2023-04-24T08:23:45;13.43;;;4.18;;
72156;SDS011;60035;52.122;5.406;2023-04-24T08:26:12;16.77;;;4.95;;
72156;SDS011;60035;52.122;5.406;2023-04-24T08:28:39;14.48;;;3.58;;
72156;SDS011;60035;52.122;5.406;2023-04-24T08:31:05;19.92;;;4.03;;
72156;SDS011;60035;52.122;5.406;2023-04-24T08:33:32;11.55;;;3.13;;
72156;SDS011;60035;52.122;5.406;2023-04-24T08:36:05;11.10;;;2.55;;
72156;SDS011;60035;52.122;5.406;2023-04-24T08:38:32;15.98;;;4.10;;
72156;SDS011;60035;52.122;5.406;2023-04-24T08:40:59;15.65;;;3.20;;
72156;SDS011;60035;52.122;5.406;2023-04-24T08:43:29;18.13;;;2.95;;
72156;SDS011;60035;52.122;5.406;2023-04-24T08:45:59;16.23;;;2.60;;
72156;SDS011;60035;52.122;5.406;2023-04-24T08:48:26;17.92;;;2.80;;
72156;SDS011;60035;52.122;5.406;2023-04-24T08:50:57;12.32;;;2.92;;
72156;SDS011;60035;52.122;5.406;2023-04-24T08:53:25;16.30;;;2.95;;
72156;SDS011;60035;52.122;5.406;2023-04-24T08:56:02;13.48;;;2.78;;
72156;SDS011;60035;52.122;5.406;2023-04-24T08:58:29;10.55;;;2.38;;
72156;SDS011;60035;52.122;5.406;2023-04-24T09:00:57;19.83;;;3.60;;
72156;SDS011;60035;52.122;5.406;2023-04-24T09:03:27;15.63;;;2.58;;
72156;SDS011;60035;52.122;5.406;2023-04-24T09:05:55;12.23;;;2.72;;
72156;SDS011;60035;52.122;5.406;2023-04-24T09:08:23;8.13;;;1.98;;
72156;SDS011;60035;52.122;5.406;2023-04-24T09:10:53;10.38;;;2.53;;
72156;SDS011;60035;52.122;5.406;2023-04-24T09:13:20;9.90;;;2.30;;
72156;SDS011;60035;52.122;5.406;2023-04-24T09:15:46;16.40;;;2.70;;
72156;SDS011;60035;52.122;5.406;2023-04-24T09:18:13;12.55;;;2.78;;
72156;SDS011;60035;52.122;5.406;2023-04-24T09:23:27;13.55;;;2.17;;
72156;SDS011;60035;52.122;5.406;2023-04-24T09:25:55;8.15;;;2.20;;
72156;SDS011;60035;52.122;5.406;2023-04-24T09:28:32;12.77;;;2.20;;
72156;SDS011;60035;52.122;5.406;2023-04-24T09:31:23;13.82;;;2.58;;
72156;SDS011;60035;52.122;5.406;2023-04-24T09:33:57;8.52;;;2.22;;
72156;SDS011;60035;52.122;5.406;2023-04-24T09:36:28;9.57;;;2.53;;
72156;SDS011;60035;52.122;5.406;2023-04-24T09:38:59;8.10;;;1.88;;
72156;SDS011;60035;52.122;5.406;2023-04-24T09:41:32;9.65;;;1.75;;
72156;SDS011;60035;52.122;5.406;2023-04-24T09:44:12;11.90;;;2.17;;
72156;SDS011;60035;52.122;5.406;2023-04-24T09:46:53;13.30;;;1.92;;
72156;SDS011;60035;52.122;5.406;2023-04-24T09:49:25;12.95;;;2.58;;
72156;SDS011;60035;52.122;5.406;2023-04-24T09:52:05;10.63;;;1.80;;
72156;SDS011;60035;52.122;5.406;2023-04-24T09:54:34;11.73;;;2.78;;
72156;SDS011;60035;52.122;5.406;2023-04-24T09:57:02;10.88;;;2.25;;
72156;SDS011;60035;52.122;5.406;2023-04-24T09:59:29;4.93;;;1.52;;
72156;SDS011;60035;52.122;5.406;2023-04-24T10:01:56;10.93;;;2.80;;
72156;SDS011;60035;52.122;5.406;2023-04-24T10:04:30;5.65;;;1.23;;
72156;SDS011;60035;52.122;5.406;2023-04-24T10:06:57;7.60;;;1.90;;
72156;SDS011;60035;52.122;5.406;2023-04-24T10:09:25;6.13;;;1.83;;
72156;SDS011;60035;52.122;5.406;2023-04-24T10:11:55;5.95;;;1.60;;
72156;SDS011;60035;52.122;5.406;2023-04-24T10:14:22;10.57;;;1.83;;
72156;SDS011;60035;52.122;5.406;2023-04-24T10:19:20;6.53;;;1.73;;
72156;SDS011;60035;52.122;5.406;2023-04-24T10:21:47;7.07;;;1.38;;
72156;SDS011;60035;52.122;5.406;2023-04-24T10:24:14;6.75;;;1.25;;
72156;SDS011;60035;52.122;5.406;2023-04-24T10:26:42;5.75;;;1.35;;
72156;SDS011;60035;52.122;5.406;2023-04-24T10:29:11;3.13;;;0.90;;
72156;SDS011;60035;52.122;5.406;2023-04-24T10:31:39;4.80;;;1.13;;
72156;SDS011;60035;52.122;5.406;2023-04-24T10:34:11;6.10;;;1.13;;
72156;SDS011;60035;52.122;5.406;2023-04-24T10:36:41;5.88;;;0.82;;
72156;SDS011;60035;52.122;5.406;2023-04-24T10:39:12;7.07;;;1.10;;
72156;SDS011;60035;52.122;5.406;2023-04-24T10:41:43;3.92;;;0.60;;
72156;SDS011;60035;52.122;5.406;2023-04-24T10:44:13;4.50;;;0.95;;
72156;SDS011;60035;52.122;5.406;2023-04-24T10:46:44;3.60;;;0.80;;
72156;SDS011;60035;52.122;5.406;2023-04-24T10:49:14;4.28;;;0.90;;
72156;SDS011;60035;52.122;5.406;2023-04-24T10:51:48;4.65;;;0.63;;
72156;SDS011;60035;52.122;5.406;2023-04-24T10:54:26;4.47;;;0.85;;
72156;SDS011;60035;52.122;5.406;2023-04-24T11:00:09;4.97;;;0.65;;
72156;SDS011;60035;52.122;5.406;2023-04-24T11:02:41;3.28;;;0.70;;
72156;SDS011;60035;52.122;5.406;2023-04-24T11:05:15;7.93;;;0.80;;
72156;SDS011;60035;52.122;5.406;2023-04-24T11:10:46;4.38;;;0.90;;
72156;SDS011;60035;52.122;5.406;2023-04-24T11:13:22;2.83;;;1.02;;
72156;SDS011;60035;52.122;5.406;2023-04-24T11:19:07;5.55;;;0.75;;
72156;SDS011;60035;52.122;5.406;2023-04-24T11:37:34;4.53;;;0.95;;
72156;SDS011;60035;52.122;5.406;2023-04-24T11:40:03;5.50;;;0.98;;
72156;SDS011;60035;52.122;5.406;2023-04-24T11:42:37;2.63;;;0.90;;
72156;SDS011;60035;52.122;5.406;2023-04-24T11:45:10;3.90;;;0.82;;
72156;SDS011;60035;52.122;5.406;2023-04-24T11:47:40;3.20;;;0.75;;
72156;SDS011;60035;52.122;5.406;2023-04-24T11:50:09;4.55;;;0.88;;
72156;SDS011;60035;52.122;5.406;2023-04-24T11:52:40;3.35;;;0.57;;
72156;SDS011;60035;52.122;5.406;2023-04-24T11:55:30;3.05;;;0.70;;
72156;SDS011;60035;52.122;5.406;2023-04-24T11:57:56;2.67;;;0.85;;
72156;SDS011;60035;52.122;5.406;2023-04-24T12:00:31;2.15;;;0.60;;
72156;SDS011;60035;52.122;5.406;2023-04-24T12:03:08;2.05;;;0.80;;
72156;SDS011;60035;52.122;5.406;2023-04-24T12:05:40;1.33;;;0.50;;
72156;SDS011;60035;52.122;5.406;2023-04-24T12:08:11;2.20;;;0.40;;
72156;SDS011;60035;52.122;5.406;2023-04-24T12:10:37;1.23;;;0.52;;
72156;SDS011;60035;52.122;5.406;2023-04-24T12:13:04;1.90;;;0.52;;
72156;SDS011;60035;52.122;5.406;2023-04-24T12:15:30;4.05;;;0.90;;
72156;SDS011;60035;52.122;5.406;2023-04-24T12:17:57;3.70;;;0.73;;
72156;SDS011;60035;52.122;5.406;2023-04-24T12:20:26;2.00;;;0.60;;
72156;SDS011;60035;52.122;5.406;2023-04-24T12:22:57;4.25;;;0.75;;
72156;SDS011;60035;52.122;5.406;2023-04-24T12:25:26;6.30;;;1.33;;
72156;SDS011;60035;52.122;5.406;2023-04-24T12:30:30;2.17;;;0.90;;
72156;SDS011;60035;52.122;5.406;2023-04-24T12:33:02;7.50;;;0.93;;
72156;SDS011;60035;52.122;5.406;2023-04-24T12:35:30;4.38;;;0.80;;
72156;SDS011;60035;52.122;5.406;2023-04-24T12:38:06;5.10;;;0.77;;
72156;SDS011;60035;52.122;5.406;2023-04-24T12:40:34;4.38;;;0.85;;
72156;SDS011;60035;52.122;5.406;2023-04-24T12:43:12;4.53;;;0.95;;
72156;SDS011;60035;52.122;5.406;2023-04-24T12:45:43;4.28;;;1.15;;
72156;SDS011;60035;52.122;5.406;2023-04-24T12:48:11;4.18;;;1.20;;
72156;SDS011;60035;52.122;5.406;2023-04-24T12:50:40;9.05;;;1.30;;
72156;SDS011;60035;52.122;5.406;2023-04-24T12:53:10;5.40;;;1.38;;
72156;SDS011;60035;52.122;5.406;2023-04-24T12:55:37;6.07;;;0.98;;
72156;SDS011;60035;52.122;5.406;2023-04-24T12:58:11;6.07;;;1.25;;
72156;SDS011;60035;52.122;5.406;2023-04-24T13:00:38;6.95;;;1.38;;
72156;SDS011;60035;52.122;5.406;2023-04-24T13:03:05;10.70;;;1.63;;
72156;SDS011;60035;52.122;5.406;2023-04-24T13:05:38;6.07;;;1.27;;
72156;SDS011;60035;52.122;5.406;2023-04-24T13:08:04;6.80;;;0.93;;
72156;SDS011;60035;52.122;5.406;2023-04-24T13:10:31;9.70;;;1.40;;
72156;SDS011;60035;52.122;5.406;2023-04-24T13:13:00;11.05;;;1.27;;
72156;SDS011;60035;52.122;5.406;2023-04-24T13:15:30;10.60;;;1.38;;
72156;SDS011;60035;52.122;5.406;2023-04-24T13:17:59;9.70;;;1.20;;
72156;SDS011;60035;52.122;5.406;2023-04-24T13:20:29;9.45;;;1.33;;
72156;SDS011;60035;52.122;5.406;2023-04-24T13:22:56;9.15;;;1.30;;
72156;SDS011;60035;52.122;5.406;2023-04-24T13:25:22;8.20;;;1.55;;
72156;SDS011;60035;52.122;5.406;2023-04-24T13:27:51;7.78;;;1.33;;
72156;SDS011;60035;52.122;5.406;2023-04-24T13:30:17;9.10;;;1.40;;
72156;SDS011;60035;52.122;5.406;2023-04-24T13:32:44;12.63;;;1.90;;
72156;SDS011;60035;52.122;5.406;2023-04-24T13:35:11;8.48;;;1.20;;
72156;SDS011;60035;52.122;5.406;2023-04-24T13:37:37;7.70;;;1.35;;
72156;SDS011;60035;52.122;5.406;2023-04-24T13:40:07;9.77;;;1.42;;
72156;SDS011;60035;52.122;5.406;2023-04-24T13:42:34;7.05;;;1.42;;
72156;SDS011;60035;52.122;5.406;2023-04-24T13:45:00;7.53;;;1.52;;
72156;SDS011;60035;52.122;5.406;2023-04-24T13:47:42;10.18;;;1.58;;
72156;SDS011;60035;52.122;5.406;2023-04-24T13:50:09;11.25;;;1.65;;
72156;SDS011;60035;52.122;5.406;2023-04-24T13:52:36;10.63;;;1.98;;
72156;SDS011;60035;52.122;5.406;2023-04-24T13:55:02;8.48;;;1.48;;
72156;SDS011;60035;52.122;5.406;2023-04-24T13:57:29;10.30;;;1.77;;
72156;SDS011;60035;52.122;5.406;2023-04-24T13:59:57;8.30;;;1.58;;
72156;SDS011;60035;52.122;5.406;2023-04-24T14:02:27;8.80;;;2.00;;
72156;SDS011;60035;52.122;5.406;2023-04-24T14:04:57;9.90;;;1.70;;
72156;SDS011;60035;52.122;5.406;2023-04-24T14:07:33;10.57;;;1.70;;
72156;SDS011;60035;52.122;5.406;2023-04-24T14:09:59;11.20;;;1.80;;
72156;SDS011;60035;52.122;5.406;2023-04-24T14:12:33;9.50;;;1.52;;
72156;SDS011;60035;52.122;5.406;2023-04-24T14:15:00;5.68;;;1.50;;
72156;SDS011;60035;52.122;5.406;2023-04-24T14:17:27;7.68;;;1.75;;
72156;SDS011;60035;52.122;5.406;2023-04-24T14:19:54;7.47;;;1.60;;
72156;SDS011;60035;52.122;5.406;2023-04-24T14:22:22;11.70;;;1.92;;
72156;SDS011;60035;52.122;5.406;2023-04-24T14:24:49;10.00;;;2.63;;
72156;SDS011;60035;52.122;5.406;2023-04-24T14:27:15;7.03;;;1.90;;
72156;SDS011;60035;52.122;5.406;2023-04-24T14:29:42;5.25;;;1.40;;
72156;SDS011;60035;52.122;5.406;2023-04-24T14:32:14;6.65;;;1.65;;
72156;SDS011;60035;52.122;5.406;2023-04-24T14:34:41;7.55;;;1.83;;
72156;SDS011;60035;52.122;5.406;2023-04-24T14:37:08;10.50;;;2.00;;
72156;SDS011;60035;52.122;5.406;2023-04-24T14:39:34;8.93;;;1.70;;
72156;SDS011;60035;52.122;5.406;2023-04-24T14:42:04;11.77;;;2.80;;
72156;SDS011;60035;52.122;5.406;2023-04-24T14:44:32;9.90;;;1.73;;
72156;SDS011;60035;52.122;5.406;2023-04-24T14:46:59;9.70;;;1.95;;
72156;SDS011;60035;52.122;5.406;2023-04-24T14:49:26;6.75;;;1.65;;
72156;SDS011;60035;52.122;5.406;2023-04-24T14:51:53;10.55;;;2.38;;
72156;SDS011;60035;52.122;5.406;2023-04-24T14:54:19;7.30;;;1.55;;
72156;SDS011;60035;52.122;5.406;2023-04-24T14:56:49;9.40;;;2.13;;
72156;SDS011;60035;52.122;5.406;2023-04-24T14:59:16;8.43;;;2.40;;
72156;SDS011;60035;52.122;5.406;2023-04-24T15:01:42;9.95;;;2.00;;
72156;SDS011;60035;52.122;5.406;2023-04-24T15:04:12;7.90;;;1.83;;
72156;SDS011;60035;52.122;5.406;2023-04-24T15:06:38;10.90;;;2.05;;
72156;SDS011;60035;52.122;5.406;2023-04-24T15:09:05;7.03;;;1.80;;
72156;SDS011;60035;52.122;5.406;2023-04-24T15:11:31;13.05;;;2.63;;
72156;SDS011;60035;52.122;5.406;2023-04-24T15:14:00;12.52;;;2.17;;
72156;SDS011;60035;52.122;5.406;2023-04-24T15:16:27;12.10;;;2.20;;
72156;SDS011;60035;52.122;5.406;2023-04-24T15:18:56;11.15;;;2.75;;
72156;SDS011;60035;52.122;5.406;2023-04-24T15:21:23;8.63;;;2.35;;